sensor_id;sensor_type;location;lat;lon;timestamp;pressure;altitude;pressure_sealevel;temperature;humidity
62634;BME280;48704;50.534;6.442;2023-05-10T00:02:16;94841.47;;;9.70;100.00
62634;BME280;48704;50.534;6.442;2023-05-10T00:04:41;94844.38;;;9.55;100.00
62634;BME280;48704;50.534;6.442;2023-05-10T00:07:06;94839.03;;;9.78;100.00
62634;BME280;48704;50.534;6.442;2023-05-10T00:09:32;94856.22;;;9.76;100.00
62634;BME280;48704;50.534;6.442;2023-05-10T00:11:57;94852.59;;;9.90;100.00
62634;BME280;48704;50.534;6.442;2023-05-10T00:14:23;94850.50;;;9.85;100.00
62634;BME280;48704;50.534;6.442;2023-05-10T00:16:48;94845.00;;;9.65;100.00
62634;BME280;48704;50.534;6.442;2023-05-10T00:19:14;94845.16;;;9.82;100.00
62634;BME280;48704;50.534;6.442;2023-05-10T00:21:39;94847.44;;;9.83;100.00
62634;BME280;48704;50.534;6.442;2023-05-10T00:24:04;94857.44;;;9.95;100.00
62634;BME280;48704;50.534;6.442;2023-05-10T00:26:30;94855.63;;;9.92;100.00
62634;BME280;48704;50.534;6.442;2023-05-10T00:28:55;94846.47;;;9.86;100.00
62634;BME280;48704;50.534;6.442;2023-05-10T00:31:20;94849.28;;;9.66;100.00
62634;BME280;48704;50.534;6.442;2023-05-10T00:33:45;94846.34;;;9.75;100.00
62634;BME280;48704;50.534;6.442;2023-05-10T00:36:11;94832.84;;;9.62;100.00
62634;BME280;48704;50.534;6.442;2023-05-10T00:38:36;94849.84;;;9.70;100.00
62634;BME280;48704;50.534;6.442;2023-05-10T00:41:02;94838.06;;;9.55;100.00
62634;BME280;48704;50.534;6.442;2023-05-10T00:43:27;94836.25;;;9.78;100.00
62634;BME280;48704;50.534;6.442;2023-05-10T00:45:52;94831.47;;;9.78;100.00
62634;BME280;48704;50.534;6.442;2023-05-10T00:48:18;94844.16;;;9.59;100.00
62634;BME280;48704;50.534;6.442;2023-05-10T00:50:44;94844.16;;;9.59;100.00
62634;BME280;48704;50.534;6.442;2023-05-10T00:53:10;94851.16;;;9.75;100.00
62634;BME280;48704;50.534;6.442;2023-05-10T00:55:35;94853.44;;;9.76;100.00
62634;BME280;48704;50.534;6.442;2023-05-10T00:58:01;94846.13;;;9.79;100.00
62634;BME280;48704;50.534;6.442;2023-05-10T01:00:26;94845.59;;;9.75;100.00
62634;BME280;48704;50.534;6.442;2023-05-10T01:02:53;94848.31;;;9.69;100.00
62634;BME280;48704;50.534;6.442;2023-05-10T01:05:18;94844.53;;;9.72;100.00
62634;BME280;48704;50.534;6.442;2023-05-10T01:07:44;94846.69;;;9.57;100.00
62634;BME280;48704;50.534;6.442;2023-05-10T01:10:09;94852.88;;;9.72;100.00
62634;BME280;48704;50.534;6.442;2023-05-10T01:12:39;94849.06;;;9.69;100.00
62634;BME280;48704;50.534;6.442;2023-05-10T01:15:06;94843.28;;;9.73;100.00
62634;BME280;48704;50.534;6.442;2023-05-10T01:17:34;94855.19;;;9.73;100.00
62634;BME280;48704;50.534;6.442;2023-05-10T01:20:00;94848.84;;;9.73;100.00
62634;BME280;48704;50.534;6.442;2023-05-10T01:25:10;94844.28;;;9.70;100.00
62634;BME280;48704;50.534;6.442;2023-05-10T01:33:39;94848.38;;;9.75;100.00
62634;BME280;48704;50.534;6.442;2023-05-10T01:36:30;94851.91;;;9.75;100.00
62634;BME280;48704;50.534;6.442;2023-05-10T01:39:09;94846.50;;;9.66;100.00
62634;BME280;48704;50.534;6.442;2023-05-10T01:44:33;94853.28;;;9.85;100.00
62634;BME280;48704;50.534;6.442;2023-05-10T01:47:07;94855.25;;;9.79;100.00
62634;BME280;48704;50.534;6.442;2023-05-10T01:49:39;94850.94;;;9.78;100.00
62634;BME280;48704;50.534;6.442;2023-05-10T01:52:10;94856.06;;;9.85;100.00
62634;BME280;48704;50.534;6.442;2023-05-10T01:54:41;94860.03;;;9.79;100.00
62634;BME280;48704;50.534;6.442;2023-05-10T01:57:08;94861.50;;;9.74;100.00
62634;BME280;48704;50.534;6.442;2023-05-10T01:59:38;94862.63;;;9.82;100.00
62634;BME280;48704;50.534;6.442;2023-05-10T02:02:06;94857.81;;;9.83;100.00
62634;BME280;48704;50.534;6.442;2023-05-10T02:04:35;94861.09;;;9.81;100.00
62634;BME280;48704;50.534;6.442;2023-05-10T02:07:02;94861.09;;;9.81;100.00
62634;BME280;48704;50.534;6.442;2023-05-10T02:09:29;94868.31;;;9.73;100.00
62634;BME280;48704;50.534;6.442;2023-05-10T02:11:58;94864.78;;;9.72;100.00
62634;BME280;48704;50.534;6.442;2023-05-10T02:14:25;94868.81;;;9.71;100.00
62634;BME280;48704;50.534;6.442;2023-05-10T02:16:53;94872.22;;;9.81;100.00
62634;BME280;48704;50.534;6.442;2023-05-10T02:19:21;94871.38;;;9.75;100.00
62634;BME280;48704;50.534;6.442;2023-05-10T02:21:48;94877.72;;;9.76;100.00
62634;BME280;48704;50.534;6.442;2023-05-10T02:24:16;94871.09;;;9.73;100.00
62634;BME280;48704;50.534;6.442;2023-05-10T02:26:44;94878.53;;;9.82;100.00
62634;BME280;48704;50.534;6.442;2023-05-10T02:29:11;94872.75;;;9.85;100.00
62634;BME280;48704;50.534;6.442;2023-05-10T02:31:37;94880.84;;;9.83;100.00
62634;BME280;48704;50.534;6.442;2023-05-10T02:34:05;94870.25;;;9.87;100.00
62634;BME280;48704;50.534;6.442;2023-05-10T02:36:31;94881.81;;;9.80;100.00
62634;BME280;48704;50.534;6.442;2023-05-10T02:38:57;94877.34;;;9.88;100.00
62634;BME280;48704;50.534;6.442;2023-05-10T02:41:24;94885.97;;;9.90;100.00
62634;BME280;48704;50.534;6.442;2023-05-10T02:43:52;94884.72;;;9.91;100.00
62634;BME280;48704;50.534;6.442;2023-05-10T02:46:21;94885.09;;;9.79;100.00
62634;BME280;48704;50.534;6.442;2023-05-10T02:48:46;94880.84;;;9.83;100.00
62634;BME280;48704;50.534;6.442;2023-05-10T02:51:12;94884.38;;;9.84;100.00
62634;BME280;48704;50.534;6.442;2023-05-10T02:53:43;94881.25;;;9.76;100.00
62634;BME280;48704;50.534;6.442;2023-05-10T02:56:13;94889.19;;;9.83;100.00
62634;BME280;48704;50.534;6.442;2023-05-10T02:58:40;94885.09;;;9.79;100.00
62634;BME280;48704;50.534;6.442;2023-05-10T03:01:05;94883.06;;;9.79;100.00
62634;BME280;48704;50.534;6.442;2023-05-10T03:03:32;94886.00;;;9.70;100.00
62634;BME280;48704;50.534;6.442;2023-05-10T03:05:58;94889.34;;;9.74;100.00
62634;BME280;48704;50.534;6.442;2023-05-10T03:08:23;94885.72;;;9.68;100.00
62634;BME280;48704;50.534;6.442;2023-05-10T03:11:07;94890.19;;;9.60;100.00
62634;BME280;48704;50.534;6.442;2023-05-10T03:13:41;94882.56;;;9.55;100.00
62634;BME280;48704;50.534;6.442;2023-05-10T03:16:12;94892.72;;;9.58;100.00
62634;BME280;48704;50.534;6.442;2023-05-10T03:18:42;94888.66;;;9.59;100.00
62634;BME280;48704;50.534;6.442;2023-05-10T03:21:11;94891.19;;;9.57;100.00
62634;BME280;48704;50.534;6.442;2023-05-10T03:23:46;94892.97;;;9.60;100.00
62634;BME280;48704;50.534;6.442;2023-05-10T03:26:24;94889.09;;;9.52;100.00
62634;BME280;48704;50.534;6.442;2023-05-10T03:28:51;94897.72;;;9.54;100.00
62634;BME280;48704;50.534;6.442;2023-05-10T03:31:18;94899.81;;;9.59;100.00
62634;BME280;48704;50.534;6.442;2023-05-10T03:33:47;94897.16;;;9.50;100.00
62634;BME280;48704;50.534;6.442;2023-05-10T03:36:13;94904.81;;;9.55;100.00
62634;BME280;48704;50.534;6.442;2023-05-10T03:38:38;94907.66;;;9.60;100.00
62634;BME280;48704;50.534;6.442;2023-05-10T03:41:04;94908.56;;;9.52;100.00
62634;BME280;48704;50.534;6.442;2023-05-10T03:43:29;94905.78;;;9.52;100.00
62634;BME280;48704;50.534;6.442;2023-05-10T03:45:54;94899.66;;;9.48;100.00
62634;BME280;48704;50.534;6.442;2023-05-10T03:48:20;94899.66;;;9.48;100.00
62634;BME280;48704;50.534;6.442;2023-05-10T03:50:45;94912.72;;;9.42;100.00
62634;BME280;48704;50.534;6.442;2023-05-10T03:53:10;94899.31;;;9.40;100.00
62634;BME280;48704;50.534;6.442;2023-05-10T03:55:36;94906.69;;;9.23;100.00
62634;BME280;48704;50.534;6.442;2023-05-10T03:58:01;94903.81;;;9.37;100.00
62634;BME280;48704;50.534;6.442;2023-05-10T04:00:26;94911.59;;;9.33;100.00
62634;BME280;48704;50.534;6.442;2023-05-10T04:02:52;94907.56;;;9.34;100.00
62634;BME280;48704;50.534;6.442;2023-05-10T04:05:17;94912.16;;;9.37;100.00
62634;BME280;48704;50.534;6.442;2023-05-10T04:07:42;94914.47;;;9.39;100.00
62634;BME280;48704;50.534;6.442;2023-05-10T04:10:09;94914.09;;;9.31;100.00
62634;BME280;48704;50.534;6.442;2023-05-10T04:12:34;94911.19;;;9.41;100.00
62634;BME280;48704;50.534;6.442;2023-05-10T04:15:00;94915.50;;;9.42;100.00
62634;BME280;48704;50.534;6.442;2023-05-10T04:17:25;94919.59;;;9.46;100.00
62634;BME280;48704;50.534;6.442;2023-05-10T04:19:50;94911.47;;;9.43;100.00
62634;BME280;48704;50.534;6.442;2023-05-10T04:22:18;94918.44;;;9.53;100.00
62634;BME280;48704;50.534;6.442;2023-05-10T04:24:43;94913.06;;;9.49;100.00
62634;BME280;48704;50.534;6.442;2023-05-10T04:27:08;94912.88;;;9.53;100.00
62634;BME280;48704;50.534;6.442;2023-05-10T04:29:33;94910.09;;;9.53;100.00
62634;BME280;48704;50.534;6.442;2023-05-10T04:31:59;94907.59;;;9.55;100.00
62634;BME280;48704;50.534;6.442;2023-05-10T04:34:24;94909.09;;;9.35;100.00
62634;BME280;48704;50.534;6.442;2023-05-10T04:36:49;94906.59;;;9.37;100.00
62634;BME280;48704;50.534;6.442;2023-05-10T04:39:15;94912.72;;;9.42;100.00
62634;BME280;48704;50.534;6.442;2023-05-10T04:41:40;94912.16;;;9.37;100.00
62634;BME280;48704;50.534;6.442;2023-05-10T04:44:05;94918.69;;;9.34;100.00
62634;BME280;48704;50.534;6.442;2023-05-10T04:46:31;94918.22;;;9.36;100.00
62634;BME280;48704;50.534;6.442;2023-05-10T04:48:56;94916.06;;;9.25;100.00
62634;BME280;48704;50.534;6.442;2023-05-10T04:51:21;94914.53;;;9.24;100.00
62634;BME280;48704;50.534;6.442;2023-05-10T04:53:47;94915.22;;;9.19;100.00
62634;BME280;48704;50.534;6.442;2023-05-10T04:56:12;94912.81;;;9.27;100.00
62634;BME280;48704;50.534;6.442;2023-05-10T04:58:37;94921.06;;;9.21;100.00
62634;BME280;48704;50.534;6.442;2023-05-10T05:01:06;94918.00;;;9.19;100.00
62634;BME280;48704;50.534;6.442;2023-05-10T05:03:32;94916.84;;;9.26;100.00
62634;BME280;48704;50.534;6.442;2023-05-10T05:05:58;94913.56;;;9.27;100.00
62634;BME280;48704;50.534;6.442;2023-05-10T05:08:23;94921.97;;;9.33;100.00
62634;BME280;48704;50.534;6.442;2023-05-10T05:10:49;94915.78;;;9.44;100.00
62634;BME280;48704;50.534;6.442;2023-05-10T05:13:15;94920.72;;;9.34;100.00
62634;BME280;48704;50.534;6.442;2023-05-10T05:15:40;94919.59;;;9.46;100.00
62634;BME280;48704;50.534;6.442;2023-05-10T05:18:05;94921.13;;;9.47;100.00
62634;BME280;48704;50.534;6.442;2023-05-10T05:20:34;94918.28;;;9.42;100.00
62634;BME280;48704;50.534;6.442;2023-05-10T05:23:00;94928.59;;;9.56;100.00
62634;BME280;48704;50.534;6.442;2023-05-10T05:25:25;94931.38;;;9.56;100.00
62634;BME280;48704;50.534;6.442;2023-05-10T05:27:50;94938.75;;;9.59;100.00
62634;BME280;48704;50.534;6.442;2023-05-10T05:30:15;94942.34;;;9.65;100.00
62634;BME280;48704;50.534;6.442;2023-05-10T05:32:41;94939.69;;;9.76;100.00
62634;BME280;48704;50.534;6.442;2023-05-10T05:35:06;94946.78;;;9.77;100.00
62634;BME280;48704;50.534;6.442;2023-05-10T05:37:32;94944.97;;;9.74;100.00
62634;BME280;48704;50.534;6.442;2023-05-10T05:39:57;94955.41;;;9.79;100.00
62634;BME280;48704;50.534;6.442;2023-05-10T05:42:22;94953.19;;;9.83;100.00
62634;BME280;48704;50.534;6.442;2023-05-10T05:44:48;94952.22;;;9.86;100.00
62634;BME280;48704;50.534;6.442;2023-05-10T05:47:13;94955.69;;;9.81;100.00
62634;BME280;48704;50.534;6.442;2023-05-10T05:49:38;94954.84;;;9.95;100.00
62634;BME280;48704;50.534;6.442;2023-05-10T05:52:04;94959.44;;;9.98;100.00
62634;BME280;48704;50.534;6.442;2023-05-10T05:54:30;94963.13;;;9.90;100.00
62634;BME280;48704;50.534;6.442;2023-05-10T05:57:00;94971.66;;;10.06;100.00
62634;BME280;48704;50.534;6.442;2023-05-10T05:59:26;94955.44;;;10.05;100.00
62634;BME280;48704;50.534;6.442;2023-05-10T06:01:51;94962.03;;;10.07;100.00
62634;BME280;48704;50.534;6.442;2023-05-10T06:04:17;94971.94;;;10.09;100.00
62634;BME280;48704;50.534;6.442;2023-05-10T06:06:42;94967.78;;;9.98;100.00
62634;BME280;48704;50.534;6.442;2023-05-10T06:09:08;94967.41;;;10.11;100.00
62634;BME280;48704;50.534;6.442;2023-05-10T06:11:33;94966.63;;;10.11;100.00
62634;BME280;48704;50.534;6.442;2023-05-10T06:13:59;94973.72;;;10.12;100.00
62634;BME280;48704;50.534;6.442;2023-05-10T06:16:25;94976.78;;;10.14;100.00
62634;BME280;48704;50.534;6.442;2023-05-10T06:18:51;94982.91;;;10.18;100.00
62634;BME280;48704;50.534;6.442;2023-05-10T06:21:16;94978.75;;;10.07;100.00
62634;BME280;48704;50.534;6.442;2023-05-10T06:23:41;94981.88;;;10.15;100.00
62634;BME280;48704;50.534;6.442;2023-05-10T06:26:07;94984.09;;;10.11;100.00
62634;BME280;48704;50.534;6.442;2023-05-10T06:28:32;94988.34;;;10.06;100.00
62634;BME280;48704;50.534;6.442;2023-05-10T06:30:58;94988.38;;;10.27;100.00
62634;BME280;48704;50.534;6.442;2023-05-10T06:33:24;94987.53;;;10.21;100.00
62634;BME280;48704;50.534;6.442;2023-05-10T06:35:49;94991.47;;;10.34;100.00
62634;BME280;48704;50.534;6.442;2023-05-10T06:38:14;94992.53;;;10.37;100.00
62634;BME280;48704;50.534;6.442;2023-05-10T06:40:43;94997.38;;;10.42;100.00
62634;BME280;48704;50.534;6.442;2023-05-10T06:43:10;95000.69;;;10.46;100.00
62634;BME280;48704;50.534;6.442;2023-05-10T06:45:35;94999.44;;;10.47;100.00
62634;BME280;48704;50.534;6.442;2023-05-10T06:48:00;95009.28;;;10.43;100.00
62634;BME280;48704;50.534;6.442;2023-05-10T06:50:26;94999.34;;;10.36;100.00
62634;BME280;48704;50.534;6.442;2023-05-10T06:52:51;94997.16;;;10.46;100.00
62634;BME280;48704;50.534;6.442;2023-05-10T06:55:17;95009.53;;;10.45;100.00
62634;BME280;48704;50.534;6.442;2023-05-10T06:57:42;95013.00;;;10.34;100.00
62634;BME280;48704;50.534;6.442;2023-05-10T07:00:07;95001.41;;;10.41;100.00
62634;BME280;48704;50.534;6.442;2023-05-10T07:02:34;95012.44;;;10.56;100.00
62634;BME280;48704;50.534;6.442;2023-05-10T07:05:00;95002.22;;;10.47;100.00
62634;BME280;48704;50.534;6.442;2023-05-10T07:07:25;95008.50;;;10.42;100.00
62634;BME280;48704;50.534;6.442;2023-05-10T07:09:51;95008.06;;;10.49;100.00
62634;BME280;48704;50.534;6.442;2023-05-10T07:12:16;95009.16;;;10.57;100.00
62634;BME280;48704;50.534;6.442;2023-05-10T07:14:42;95007.75;;;10.67;100.00
62634;BME280;48704;50.534;6.442;2023-05-10T07:17:07;95019.75;;;10.79;100.00
62634;BME280;48704;50.534;6.442;2023-05-10T07:19:32;95020.72;;;10.70;100.00
62634;BME280;48704;50.534;6.442;2023-05-10T07:21:58;95026.56;;;10.73;100.00
62634;BME280;48704;50.534;6.442;2023-05-10T07:24:23;95018.97;;;10.79;100.00
62634;BME280;48704;50.534;6.442;2023-05-10T07:26:49;95027.09;;;10.77;100.00
62634;BME280;48704;50.534;6.442;2023-05-10T07:29:14;95028.09;;;10.79;100.00
62634;BME280;48704;50.534;6.442;2023-05-10T07:31:40;95033.47;;;10.83;100.00
62634;BME280;48704;50.534;6.442;2023-05-10T07:34:07;95031.84;;;10.70;100.00
62634;BME280;48704;50.534;6.442;2023-05-10T07:36:32;95027.63;;;10.81;100.00
62634;BME280;48704;50.534;6.442;2023-05-10T07:38:57;95034.56;;;10.91;100.00
62634;BME280;48704;50.534;6.442;2023-05-10T07:41:23;95029.16;;;10.82;100.00
62634;BME280;48704;50.534;6.442;2023-05-10T07:43:48;95032.56;;;10.65;100.00
62634;BME280;48704;50.534;6.442;2023-05-10T07:46:13;95025.56;;;10.76;100.00
62634;BME280;48704;50.534;6.442;2023-05-10T07:48:39;95039.97;;;10.48;100.00
62634;BME280;48704;50.534;6.442;2023-05-10T07:51:04;95040.28;;;10.30;100.00
62634;BME280;48704;50.534;6.442;2023-05-10T07:53:31;95048.06;;;10.46;100.00
62634;BME280;48704;50.534;6.442;2023-05-10T07:55:58;95042.31;;;10.55;100.00
62634;BME280;48704;50.534;6.442;2023-05-10T07:58:24;95043.78;;;10.51;100.00
62634;BME280;48704;50.534;6.442;2023-05-10T08:00:49;95043.78;;;10.51;100.00
62634;BME280;48704;50.534;6.442;2023-05-10T08:03:15;95042.25;;;10.24;100.00
62634;BME280;48704;50.534;6.442;2023-05-10T08:05:40;95043.22;;;10.21;100.00
62634;BME280;48704;50.534;6.442;2023-05-10T08:08:06;95048.78;;;10.21;100.00
62634;BME280;48704;50.534;6.442;2023-05-10T08:10:31;95045.56;;;10.07;100.00
62634;BME280;48704;50.534;6.442;2023-05-10T08:12:57;95052.25;;;10.16;100.00
62634;BME280;48704;50.534;6.442;2023-05-10T08:15:23;95048.81;;;10.06;100.00
62634;BME280;48704;50.534;6.442;2023-05-10T08:17:49;95051.59;;;10.06;100.00
62634;BME280;48704;50.534;6.442;2023-05-10T08:20:14;95050.03;;;9.99;100.00
62634;BME280;48704;50.534;6.442;2023-05-10T08:22:42;95051.78;;;9.97;100.00
62634;BME280;48704;50.534;6.442;2023-05-10T08:25:07;95054.59;;;10.02;100.00
62634;BME280;48704;50.534;6.442;2023-05-10T08:27:33;95049.78;;;10.03;100.00
62634;BME280;48704;50.534;6.442;2023-05-10T08:29:58;95054.34;;;10.00;100.00
62634;BME280;48704;50.534;6.442;2023-05-10T08:32:23;95058.88;;;9.98;100.00
62634;BME280;48704;50.534;6.442;2023-05-10T08:34:48;95061.50;;;9.87;100.00
62634;BME280;48704;50.534;6.442;2023-05-10T08:37:14;95057.91;;;9.66;100.00
62634;BME280;48704;50.534;6.442;2023-05-10T08:39:39;95071.69;;;9.55;100.00
62634;BME280;48704;50.534;6.442;2023-05-10T08:42:06;95082.41;;;9.62;100.00
62634;BME280;48704;50.534;6.442;2023-05-10T08:44:32;95064.38;;;9.57;100.00
62634;BME280;48704;50.534;6.442;2023-05-10T08:46:59;95076.84;;;9.62;100.00
62634;BME280;48704;50.534;6.442;2023-05-10T08:49:28;95071.81;;;9.66;100.00
62634;BME280;48704;50.534;6.442;2023-05-10T08:51:57;95081.78;;;9.72;100.00
62634;BME280;48704;50.534;6.442;2023-05-10T08:54:24;95084.09;;;9.74;100.00
62634;BME280;48704;50.534;6.442;2023-05-10T08:56:49;95091.03;;;9.64;100.00
62634;BME280;48704;50.534;6.442;2023-05-10T08:59:14;95098.47;;;9.72;100.00
62634;BME280;48704;50.534;6.442;2023-05-10T09:01:42;95090.63;;;9.71;100.00
62634;BME280;48704;50.534;6.442;2023-05-10T09:04:09;95092.72;;;9.76;100.00
62634;BME280;48704;50.534;6.442;2023-05-10T09:06:34;95090.69;;;9.77;100.00
62634;BME280;48704;50.534;6.442;2023-05-10T09:09:00;95094.25;;;9.77;100.00
62634;BME280;48704;50.534;6.442;2023-05-10T09:11:26;95102.31;;;9.75;100.00
62634;BME280;48704;50.534;6.442;2023-05-10T09:13:54;95109.00;;;9.83;100.00
62634;BME280;48704;50.534;6.442;2023-05-10T09:16:19;95099.59;;;9.81;100.00
62634;BME280;48704;50.534;6.442;2023-05-10T09:18:45;95097.88;;;9.83;100.00
62634;BME280;48704;50.534;6.442;2023-05-10T09:21:10;95106.66;;;10.17;100.00
62634;BME280;48704;50.534;6.442;2023-05-10T09:23:36;95116.09;;;10.40;100.00
62634;BME280;48704;50.534;6.442;2023-05-10T09:26:05;95108.09;;;10.27;100.00
62634;BME280;48704;50.534;6.442;2023-05-10T09:28:34;95109.63;;;10.28;100.00
62634;BME280;48704;50.534;6.442;2023-05-10T09:31:00;95109.47;;;10.57;100.00
62634;BME280;48704;50.534;6.442;2023-05-10T09:33:25;95111.41;;;10.51;100.00
62634;BME280;48704;50.534;6.442;2023-05-10T09:35:51;95112.38;;;10.68;100.00
62634;BME280;48704;50.534;6.442;2023-05-10T09:38:17;95116.91;;;10.92;100.00
62634;BME280;48704;50.534;6.442;2023-05-10T09:40:51;95117.59;;;11.07;100.00
62634;BME280;48704;50.534;6.442;2023-05-10T09:43:19;95113.19;;;11.26;100.00
62634;BME280;48704;50.534;6.442;2023-05-10T09:45:47;95123.91;;;11.33;100.00
62634;BME280;48704;50.534;6.442;2023-05-10T09:48:13;95124.72;;;11.71;100.00
62634;BME280;48704;50.534;6.442;2023-05-10T09:50:39;95123.63;;;11.63;100.00
62634;BME280;48704;50.534;6.442;2023-05-10T09:53:04;95135.59;;;11.37;100.00
62634;BME280;48704;50.534;6.442;2023-05-10T09:58:01;95133.81;;;11.66;100.00
62634;BME280;48704;50.534;6.442;2023-05-10T10:00:27;95130.75;;;11.64;100.00
62634;BME280;48704;50.534;6.442;2023-05-10T10:02:57;95135.66;;;11.75;100.00
62634;BME280;48704;50.534;6.442;2023-05-10T10:05:49;95140.75;;;11.45;100.00
62634;BME280;48704;50.534;6.442;2023-05-10T10:08:15;95133.00;;;11.60;100.00
62634;BME280;48704;50.534;6.442;2023-05-10T10:10:41;95137.53;;;11.57;100.00
62634;BME280;48704;50.534;6.442;2023-05-10T10:13:09;95132.16;;;11.54;100.00
62634;BME280;48704;50.534;6.442;2023-05-10T10:15:34;95137.84;;;11.65;100.00
62634;BME280;48704;50.534;6.442;2023-05-10T10:18:00;95129.16;;;11.83;100.00
62634;BME280;48704;50.534;6.442;2023-05-10T10:20:26;95139.16;;;11.69;100.00
62634;BME280;48704;50.534;6.442;2023-05-10T10:22:52;95132.47;;;11.87;100.00
62634;BME280;48704;50.534;6.442;2023-05-10T10:25:19;95147.25;;;12.42;100.00
62634;BME280;48704;50.534;6.442;2023-05-10T10:30:29;95135.19;;;12.19;100.00
62634;BME280;48704;50.534;6.442;2023-05-10T10:35:28;95140.03;;;11.81;100.00
62634;BME280;48704;50.534;6.442;2023-05-10T10:37:54;95143.81;;;11.47;100.00
62634;BME280;48704;50.534;6.442;2023-05-10T10:40:30;95141.28;;;11.23;100.00
62634;BME280;48704;50.534;6.442;2023-05-10T10:42:56;95139.69;;;11.11;100.00
62634;BME280;48704;50.534;6.442;2023-05-10T10:45:24;95146.00;;;11.37;100.00
62634;BME280;48704;50.534;6.442;2023-05-10T10:48:19;95149.56;;;11.37;100.00
62634;BME280;48704;50.534;6.442;2023-05-10T10:50:45;95139.22;;;11.44;100.00
62634;BME280;48704;50.534;6.442;2023-05-10T10:53:13;95146.03;;;11.74;100.00
62634;BME280;48704;50.534;6.442;2023-05-10T10:55:46;95145.69;;;11.61;100.00
62634;BME280;48704;50.534;6.442;2023-05-10T10:58:29;95142.06;;;11.55;100.00
62634;BME280;48704;50.534;6.442;2023-05-10T11:01:15;95144.06;;;11.49;100.00
62634;BME280;48704;50.534;6.442;2023-05-10T11:04:40;95146.88;;;11.49;100.00
62634;BME280;48704;50.534;6.442;2023-05-10T11:06:40;95156.50;;;11.48;100.00
62634;BME280;48704;50.534;6.442;2023-05-10T11:09:07;95152.06;;;11.67;100.00
62634;BME280;48704;50.534;6.442;2023-05-10T11:11:34;95146.50;;;11.67;100.00
62634;BME280;48704;50.534;6.442;2023-05-10T11:14:04;95146.22;;;11.65;100.00
62634;BME280;48704;50.534;6.442;2023-05-10T11:16:41;95141.19;;;11.69;100.00
62634;BME280;48704;50.534;6.442;2023-05-10T11:19:10;95147.81;;;12.09;100.00
62634;BME280;48704;50.534;6.442;2023-05-10T11:21:51;95147.56;;;11.75;100.00
62634;BME280;48704;50.534;6.442;2023-05-10T11:24:32;95144.69;;;11.95;100.00
62634;BME280;48704;50.534;6.442;2023-05-10T11:26:59;95150.50;;;12.34;100.00
62634;BME280;48704;50.534;6.442;2023-05-10T11:29:24;95147.88;;;12.73;100.00
62634;BME280;48704;50.534;6.442;2023-05-10T11:31:51;95147.78;;;12.46;100.00
62634;BME280;48704;50.534;6.442;2023-05-10T11:34:30;95148.06;;;12.53;100.00
62634;BME280;48704;50.534;6.442;2023-05-10T11:36:59;95161.81;;;12.62;100.00
62634;BME280;48704;50.534;6.442;2023-05-10T11:39:29;95161.25;;;12.47;100.00
62634;BME280;48704;50.534;6.442;2023-05-10T11:41:55;95161.72;;;12.40;100.00
62634;BME280;48704;50.534;6.442;2023-05-10T11:44:21;95158.81;;;12.18;100.00
62634;BME280;48704;50.534;6.442;2023-05-10T11:46:46;95160.69;;;11.95;100.00
62634;BME280;48704;50.534;6.442;2023-05-10T11:49:11;95165.84;;;11.76;100.00
62634;BME280;48704;50.534;6.442;2023-05-10T11:51:38;95164.22;;;11.64;100.00
62634;BME280;48704;50.534;6.442;2023-05-10T11:54:08;95166.66;;;11.77;100.00
62634;BME280;48704;50.534;6.442;2023-05-10T11:56:34;95165.59;;;11.74;100.00
62634;BME280;48704;50.534;6.442;2023-05-10T11:59:00;95170.84;;;11.66;100.00
62634;BME280;48704;50.534;6.442;2023-05-10T12:01:27;95171.78;;;11.58;100.00
62634;BME280;48704;50.534;6.442;2023-05-10T12:03:54;95172.25;;;11.51;100.00
62634;BME280;48704;50.534;6.442;2023-05-10T12:06:20;95173.47;;;11.44;100.00
62634;BME280;48704;50.534;6.442;2023-05-10T12:08:47;95177.19;;;11.67;100.00
62634;BME280;48704;50.534;6.442;2023-05-10T12:11:14;95172.13;;;11.97;100.00
62634;BME280;48704;50.534;6.442;2023-05-10T12:13:43;95178.91;;;11.90;100.00
62634;BME280;48704;50.534;6.442;2023-05-10T12:16:28;95181.69;;;11.85;100.00
62634;BME280;48704;50.534;6.442;2023-05-10T12:18:57;95171.56;;;11.87;100.00
62634;BME280;48704;50.534;6.442;2023-05-10T12:21:23;95171.03;;;11.83;100.00
62634;BME280;48704;50.534;6.442;2023-05-10T12:23:53;95182.41;;;11.54;100.00
62634;BME280;48704;50.534;6.442;2023-05-10T12:26:25;95171.78;;;11.58;100.00
62634;BME280;48704;50.534;6.442;2023-05-10T12:28:52;95176.53;;;11.52;100.00
62634;BME280;48704;50.534;6.442;2023-05-10T12:31:17;95171.50;;;11.56;100.00
62634;BME280;48704;50.534;6.442;2023-05-10T12:33:44;95187.53;;;11.87;100.00
62634;BME280;48704;50.534;6.442;2023-05-10T12:36:11;95182.25;;;11.94;100.00
62634;BME280;48704;50.534;6.442;2023-05-10T12:38:38;95182.41;;;12.17;100.00
62634;BME280;48704;50.534;6.442;2023-05-10T12:41:09;95183.19;;;12.17;100.00
62634;BME280;48704;50.534;6.442;2023-05-10T12:43:35;95183.94;;;12.18;100.00
62634;BME280;48704;50.534;6.442;2023-05-10T12:46:11;95189.91;;;12.42;100.00
62634;BME280;48704;50.534;6.442;2023-05-10T12:48:38;95186.19;;;12.56;100.00
62634;BME280;48704;50.534;6.442;2023-05-10T12:51:04;95184.44;;;13.41;100.00
62634;BME280;48704;50.534;6.442;2023-05-10T12:53:30;95178.31;;;14.37;100.00
62634;BME280;48704;50.534;6.442;2023-05-10T12:55:55;95186.75;;;14.20;100.00
62634;BME280;48704;50.534;6.442;2023-05-10T12:58:21;95188.50;;;15.20;100.00
62634;BME280;48704;50.534;6.442;2023-05-10T13:00:46;95190.06;;;13.74;100.00
62634;BME280;48704;50.534;6.442;2023-05-10T13:03:12;95193.66;;;14.02;100.00
62634;BME280;48704;50.534;6.442;2023-05-10T13:05:38;95189.50;;;14.48;100.00
62634;BME280;48704;50.534;6.442;2023-05-10T13:08:03;95179.19;;;15.42;100.00
62634;BME280;48704;50.534;6.442;2023-05-10T13:10:30;95184.19;;;15.60;100.00
62634;BME280;48704;50.534;6.442;2023-05-10T13:12:57;95187.56;;;15.01;100.00
62634;BME280;48704;50.534;6.442;2023-05-10T13:15:22;95186.91;;;14.73;100.00